Time;durP1;ratioP1;P1;durP2;ratioP2;P2;SDS_P1;SDS_P2;PMS_P1;PMS_P2;Temp;Humidity;BMP_temperature;BMP_pressure;BME280_temperature;BME280_humidity;BME280_pressure;Samples;Min_cycle;Max_cycle;Signal;HPM_P1;HPM_P2
2023/05/23 00:00:38;;;;;;;16.60;11.93;;;15.40;40.60;;;;;;5065325;28;46538;-65
2023/05/23 00:03:03;;;;;;;16.40;10.60;;;15.40;40.90;;;;;;5067429;28;46424;-65
2023/05/23 00:05:29;;;;;;;24.97;12.50;;;15.40;41.10;;;;;;5065507;28;47265;-66
2023/05/23 00:07:54;;;;;;;19.07;13.20;;;15.40;41.10;;;;;;5066846;28;46422;-65
2023/05/23 00:10:21;;;;;;;19.90;13.30;;;15.40;41.20;;;;;;5065743;28;46429;-64
2023/05/23 00:12:47;;;;;;;19.47;12.63;;;15.30;41.40;;;;;;5063535;28;46478;-65
2023/05/23 00:15:13;;;;;;;23.60;12.17;;;15.30;41.60;;;;;;5066468;28;46403;-65
2023/05/23 00:17:38;;;;;;;18.50;12.17;;;15.30;41.70;;;;;;5065008;28;46540;-65
2023/05/23 00:20:08;;;;;;;15.90;11.50;;;15.30;41.70;;;;;;5065647;28;46655;-65
2023/05/23 00:22:35;;;;;;;20.63;13.77;;;15.30;41.90;;;;;;5062787;28;46381;-65
2023/05/23 00:25:02;;;;;;;21.03;12.77;;;15.30;41.90;;;;;;5067088;28;47260;-65
2023/05/23 00:27:27;;;;;;;21.23;12.40;;;15.30;42.00;;;;;;5061164;28;46750;-66
2023/05/23 00:29:53;;;;;;;22.63;13.57;;;15.30;42.00;;;;;;5068888;28;46455;-66
2023/05/23 00:32:18;;;;;;;19.47;12.40;;;15.30;42.10;;;;;;5065459;27;46460;-65
2023/05/23 00:34:44;;;;;;;19.37;12.60;;;15.20;42.20;;;;;;5063501;28;46334;-65
2023/05/23 00:37:10;;;;;;;21.87;13.50;;;15.20;42.50;;;;;;5065901;28;46398;-66
2023/05/23 00:39:36;;;;;;;20.20;12.97;;;15.10;43.10;;;;;;5064208;27;46370;-66
2023/05/23 00:42:04;;;;;;;19.43;13.20;;;15.10;43.10;;;;;;5068900;28;46430;-65
2023/05/23 00:44:30;;;;;;;22.47;13.40;;;15.00;43.00;;;;;;5068536;28;46575;-65
2023/05/23 00:46:56;;;;;;;20.50;13.10;;;15.00;43.70;;;;;;5068302;28;45887;-64
2023/05/23 00:49:22;;;;;;;26.40;15.23;;;15.00;44.20;;;;;;5070414;28;46936;-65
2023/05/23 00:51:50;;;;;;;26.23;14.93;;;14.90;44.50;;;;;;5071668;28;46489;-66
2023/05/23 00:54:35;;;;;;;24.40;15.83;;;15.00;44.80;;;;;;5067397;28;46369;-66
2023/05/23 00:57:01;;;;;;;22.83;15.20;;;14.90;45.30;;;;;;5066321;28;45906;-66
2023/05/23 00:59:27;;;;;;;21.40;15.10;;;14.90;45.00;;;;;;5068254;28;46385;-65
2023/05/23 01:01:55;;;;;;;21.27;15.10;;;15.00;45.00;;;;;;5073288;28;46340;-66
2023/05/23 01:04:28;;;;;;;18.90;12.63;;;15.00;44.90;;;;;;5068587;28;47115;-66
2023/05/23 01:06:54;;;;;;;20.40;13.87;;;15.00;45.00;;;;;;5067035;28;47099;-66
2023/05/23 01:09:22;;;;;;;20.20;14.47;;;15.00;45.00;;;;;;5067040;27;46480;-66
2023/05/23 01:12:00;;;;;;;21.53;14.90;;;15.00;46.00;;;;;;5068363;28;46382;-66
2023/05/23 01:14:40;;;;;;;20.70;13.93;;;15.00;46.50;;;;;;5069127;28;46828;-65
2023/05/23 01:17:16;;;;;;;20.07;14.13;;;14.90;45.40;;;;;;5069318;28;46508;-65
2023/05/23 01:19:48;;;;;;;21.13;14.57;;;14.90;45.40;;;;;;5072737;28;46837;-67
2023/05/23 01:22:51;;;;;;;23.07;15.10;;;14.90;45.50;;;;;;5072623;28;46372;-65
2023/05/23 01:25:37;;;;;;;20.50;14.83;;;14.90;45.80;;;;;;5065959;28;46461;-66
2023/05/23 01:28:06;;;;;;;22.37;14.17;;;14.80;45.50;;;;;;5061563;28;46605;-66
2023/05/23 01:30:38;;;;;;;23.50;16.50;;;14.80;45.50;;;;;;5066403;28;46417;-67
2023/05/23 01:33:05;;;;;;;24.83;16.27;;;14.80;45.90;;;;;;5069850;28;46084;-66
2023/05/23 01:35:31;;;;;;;25.50;15.67;;;14.70;46.00;;;;;;5070257;28;46113;-66
2023/05/23 01:37:57;;;;;;;24.17;16.83;;;14.70;46.20;;;;;;5070587;28;46408;-66
2023/05/23 01:40:23;;;;;;;23.63;14.30;;;14.70;46.40;;;;;;5066232;28;45911;-65
2023/05/23 01:42:50;;;;;;;26.73;15.70;;;14.70;46.50;;;;;;5068130;28;46480;-65
2023/05/23 01:45:16;;;;;;;24.13;16.13;;;14.60;47.70;;;;;;5069951;28;46318;-66
2023/05/23 01:47:43;;;;;;;22.57;14.90;;;14.70;46.70;;;;;;5068704;28;46359;-66
2023/05/23 01:50:10;;;;;;;23.90;15.97;;;14.60;46.60;;;;;;5068229;28;46384;-65
2023/05/23 01:52:36;;;;;;;23.10;15.23;;;14.60;46.50;;;;;;5066715;27;46362;-66
2023/05/23 01:55:08;;;;;;;22.63;15.17;;;14.70;46.60;;;;;;5066802;28;46337;-65
2023/05/23 01:57:39;;;;;;;22.03;15.43;;;14.70;46.50;;;;;;5063530;27;46698;-66
2023/05/23 02:00:05;;;;;;;26.87;16.40;;;14.70;46.50;;;;;;5065958;28;46749;-65
2023/05/23 02:02:32;;;;;;;22.93;14.80;;;14.70;46.30;;;;;;5068221;27;46544;-65
2023/05/23 02:04:59;;;;;;;22.77;15.23;;;14.70;46.40;;;;;;5066994;28;46412;-66
2023/05/23 02:07:25;;;;;;;20.80;16.13;;;14.70;46.50;;;;;;5066209;28;46455;-66
2023/05/23 02:09:50;;;;;;;24.27;17.30;;;14.60;46.60;;;;;;5066533;28;45897;-66
2023/05/23 02:12:16;;;;;;;23.97;16.70;;;14.60;46.80;;;;;;5065551;28;46287;-66
2023/05/23 02:14:41;;;;;;;23.23;16.87;;;14.50;47.10;;;;;;5064803;28;47174;-66
2023/05/23 02:17:10;;;;;;;27.30;17.33;;;14.50;47.30;;;;;;5065057;28;46736;-65
2023/05/23 02:19:36;;;;;;;27.77;19.17;;;14.50;47.50;;;;;;5066307;28;46674;-66
2023/05/23 02:22:02;;;;;;;27.80;18.70;;;14.50;47.70;;;;;;5063772;28;46383;-66
2023/05/23 02:24:28;;;;;;;23.67;16.10;;;14.50;48.10;;;;;;5067807;28;46555;-66
2023/05/23 02:26:53;;;;;;;23.90;17.27;;;14.50;48.30;;;;;;5067811;28;46371;-66
2023/05/23 02:29:19;;;;;;;26.73;18.03;;;14.50;48.30;;;;;;5068034;28;46588;-66
2023/05/23 02:31:44;;;;;;;24.80;17.17;;;14.50;48.20;;;;;;5064428;28;46457;-66
2023/05/23 02:34:10;;;;;;;29.63;18.50;;;14.60;48.30;;;;;;5062815;28;46466;-66
2023/05/23 02:36:36;;;;;;;27.23;18.97;;;14.50;48.20;;;;;;5063983;28;46694;-66
2023/05/23 02:39:02;;;;;;;31.27;18.33;;;14.50;48.20;;;;;;5068003;28;46537;-66
2023/05/23 02:41:28;;;;;;;30.40;20.27;;;14.50;48.30;;;;;;5064589;27;47387;-66
2023/05/23 02:43:54;;;;;;;29.93;19.60;;;14.50;48.30;;;;;;5070081;28;47265;-66
2023/05/23 02:46:20;;;;;;;33.80;21.57;;;14.60;48.60;;;;;;5068879;28;47231;-66
2023/05/23 02:48:45;;;;;;;30.17;19.67;;;14.50;48.80;;;;;;5065956;27;46477;-66
2023/05/23 02:51:12;;;;;;;27.40;19.87;;;14.60;50.40;;;;;;5068027;28;46609;-66
2023/05/23 02:53:38;;;;;;;27.60;19.00;;;14.60;49.40;;;;;;5067510;28;46028;-66
2023/05/23 02:56:04;;;;;;;30.00;19.70;;;14.60;49.60;;;;;;5066799;28;46353;-66
2023/05/23 02:58:30;;;;;;;29.83;19.90;;;14.50;49.90;;;;;;5061589;27;46562;-66
2023/05/23 03:00:56;;;;;;;29.10;19.50;;;14.50;50.10;;;;;;5068542;28;46341;-66
2023/05/23 03:03:22;;;;;;;26.93;19.00;;;14.50;50.30;;;;;;5067992;28;47000;-65
2023/05/23 03:05:47;;;;;;;30.37;19.20;;;14.50;50.40;;;;;;5067557;28;46384;-66
2023/05/23 03:08:13;;;;;;;26.97;18.10;;;14.50;50.50;;;;;;5064403;28;45773;-66
2023/05/23 03:10:39;;;;;;;29.60;19.73;;;14.50;50.60;;;;;;5065274;27;46590;-66
2023/05/23 03:13:04;;;;;;;29.57;19.90;;;14.50;50.60;;;;;;5066377;28;46382;-66
2023/05/23 03:15:30;;;;;;;28.97;19.87;;;14.50;50.60;;;;;;5068825;28;46421;-65
2023/05/23 03:17:55;;;;;;;33.43;20.67;;;14.40;50.60;;;;;;5068357;28;46895;-66
2023/05/23 03:20:21;;;;;;;32.80;22.23;;;14.40;50.90;;;;;;5065889;28;46586;-66
2023/05/23 03:22:47;;;;;;;34.50;20.50;;;14.40;51.20;;;;;;5063155;28;47838;-65
2023/05/23 03:25:15;;;;;;;34.00;20.30;;;14.30;51.50;;;;;;5065800;28;46201;-66
2023/05/23 03:27:40;;;;;;;30.93;22.30;;;14.30;51.80;;;;;;5065110;28;46355;-66
2023/05/23 03:30:07;;;;;;;37.90;22.77;;;14.20;52.50;;;;;;5068428;28;46472;-65
2023/05/23 03:32:32;;;;;;;37.00;21.47;;;14.20;53.10;;;;;;5063720;28;47574;-67
2023/05/23 03:34:58;;;;;;;35.43;22.60;;;14.20;53.80;;;;;;5069155;28;46427;-66
2023/05/23 03:37:24;;;;;;;41.20;24.30;;;14.20;54.40;;;;;;5065354;28;46436;-65
2023/05/23 03:39:49;;;;;;;34.60;23.53;;;14.20;54.50;;;;;;5066406;28;46897;-66
2023/05/23 03:42:16;;;;;;;37.33;24.13;;;14.20;54.70;;;;;;5063592;27;46139;-66
2023/05/23 03:44:42;;;;;;;32.57;22.17;;;14.30;55.00;;;;;;5064273;28;45920;-66
2023/05/23 03:47:07;;;;;;;39.13;22.47;;;14.30;55.00;;;;;;5066920;28;46219;-66
2023/05/23 03:49:33;;;;;;;28.73;19.73;;;14.20;55.30;;;;;;5066559;28;46511;-65
2023/05/23 03:51:59;;;;;;;29.83;19.13;;;14.30;55.60;;;;;;5059782;28;46803;-64
2023/05/23 03:54:24;;;;;;;30.77;20.00;;;14.20;55.50;;;;;;5058443;28;46405;-65
2023/05/23 03:56:50;;;;;;;27.73;19.70;;;14.20;55.50;;;;;;5062311;28;46310;-66
2023/05/23 03:59:17;;;;;;;32.73;20.30;;;14.20;55.50;;;;;;5064865;28;46483;-64
2023/05/23 04:01:43;;;;;;;31.63;20.17;;;14.30;55.60;;;;;;5060757;28;46467;-64
2023/05/23 04:04:08;;;;;;;30.50;19.03;;;14.30;55.60;;;;;;5066943;28;46435;-65
2023/05/23 04:06:34;;;;;;;30.30;21.53;;;14.40;55.30;;;;;;5064436;28;46505;-66
2023/05/23 04:09:01;;;;;;;31.30;20.40;;;14.50;55.10;;;;;;5064600;28;45908;-64
2023/05/23 04:11:26;;;;;;;34.20;21.33;;;14.50;55.10;;;;;;5065244;28;46331;-65
2023/05/23 04:13:52;;;;;;;30.73;20.97;;;14.60;55.10;;;;;;5064515;28;46416;-66
2023/05/23 04:16:18;;;;;;;31.60;21.20;;;14.70;55.10;;;;;;5067711;28;46426;-64
2023/05/23 04:18:45;;;;;;;31.70;21.10;;;14.90;54.80;;;;;;5069555;28;46573;-64
2023/05/23 04:21:11;;;;;;;30.20;19.60;;;15.00;54.40;;;;;;5066792;28;46982;-64
2023/05/23 04:23:37;;;;;;;31.10;20.67;;;15.20;54.10;;;;;;5070901;28;46209;-64
2023/05/23 04:26:04;;;;;;;29.43;19.30;;;15.30;53.70;;;;;;5069348;27;46559;-62
2023/05/23 04:28:32;;;;;;;28.40;19.90;;;15.50;54.70;;;;;;5071988;28;46417;-65
2023/05/23 04:30:58;;;;;;;31.60;20.30;;;15.60;53.10;;;;;;5065946;28;46392;-65
2023/05/23 04:33:25;;;;;;;33.93;21.83;;;15.80;52.60;;;;;;5072289;28;45953;-65
2023/05/23 04:35:50;;;;;;;28.30;18.90;;;16.00;52.30;;;;;;5073245;28;46388;-65
2023/05/23 04:38:16;;;;;;;33.17;20.00;;;16.20;51.70;;;;;;5070442;27;46456;-64
2023/05/23 04:40:42;;;;;;;27.30;19.07;;;16.50;51.40;;;;;;5066005;28;46406;-65
2023/05/23 04:43:09;;;;;;;25.10;18.10;;;16.60;50.70;;;;;;5068776;28;46436;-64
2023/05/23 04:45:35;;;;;;;27.00;18.17;;;16.90;50.10;;;;;;5067059;28;46590;-65
2023/05/23 04:48:02;;;;;;;27.17;18.90;;;17.30;49.00;;;;;;5068104;27;46662;-64
2023/05/23 04:50:30;;;;;;;26.67;18.13;;;17.50;48.30;;;;;;5068540;28;47706;-65
2023/05/23 04:52:56;;;;;;;27.50;18.37;;;18.00;47.30;;;;;;5061922;28;46469;-65
2023/05/23 04:55:21;;;;;;;27.10;17.73;;;18.40;46.40;;;;;;5067521;28;46454;-65
2023/05/23 04:57:47;;;;;;;23.50;16.53;;;18.90;46.60;;;;;;5067227;28;46619;-66
2023/05/23 05:00:13;;;;;;;23.90;16.70;;;19.20;45.80;;;;;;5066890;28;46425;-65
2023/05/23 05:02:40;;;;;;;25.13;16.87;;;20.00;44.40;;;;;;5067287;28;46493;-65
2023/05/23 05:05:06;;;;;;;25.50;17.43;;;20.50;42.90;;;;;;5068675;28;46495;-64
2023/05/23 05:07:31;;;;;;;25.43;17.60;;;20.50;42.10;;;;;;5071427;28;46738;-64
2023/05/23 05:09:57;;;;;;;29.53;18.43;;;20.10;42.30;;;;;;5069482;28;48202;-65
2023/05/23 05:12:23;;;;;;;33.27;18.40;;;19.70;43.00;;;;;;5067381;28;46428;-64
2023/05/23 05:14:48;;;;;;;26.00;18.60;;;19.30;43.40;;;;;;5066053;28;46503;-65
2023/05/23 05:17:14;;;;;;;25.60;17.87;;;19.00;43.80;;;;;;5069870;28;46384;-65
2023/05/23 05:19:40;;;;;;;29.63;19.97;;;18.80;44.20;;;;;;5066600;28;47127;-64
2023/05/23 05:22:06;;;;;;;33.67;20.73;;;18.50;44.50;;;;;;5067055;28;46198;-65
2023/05/23 05:24:32;;;;;;;32.80;19.97;;;18.20;45.50;;;;;;5070714;28;46396;-65
2023/05/23 05:27:01;;;;;;;30.10;19.30;;;17.90;45.70;;;;;;5068173;27;46868;-65
2023/05/23 05:29:27;;;;;;;34.03;19.40;;;17.90;45.70;;;;;;5066555;28;46629;-65
2023/05/23 05:31:53;;;;;;;30.90;19.93;;;18.00;45.80;;;;;;5069866;27;46467;-65
2023/05/23 05:34:18;;;;;;;31.50;19.90;;;18.00;45.90;;;;;;5068621;28;46447;-65
2023/05/23 05:36:47;;;;;;;31.57;19.87;;;18.10;45.90;;;;;;5067140;28;46490;-65
2023/05/23 05:39:15;;;;;;;33.07;22.27;;;18.10;46.30;;;;;;5063699;28;46731;-65
2023/05/23 05:41:41;;;;;;;33.57;20.90;;;18.20;46.00;;;;;;5067312;28;46334;-65
2023/05/23 05:44:07;;;;;;;30.00;19.60;;;18.50;46.10;;;;;;5067916;28;46371;-65
2023/05/23 05:46:33;;;;;;;25.50;16.43;;;19.50;43.70;;;;;;5069079;28;46839;-65
2023/05/23 05:48:58;;;;;;;27.13;17.67;;;20.60;41.00;;;;;;5067813;27;46387;-65
2023/05/23 05:51:24;;;;;;;29.00;18.10;;;21.00;39.60;;;;;;5067893;28;46391;-66
2023/05/23 05:53:50;;;;;;;25.60;17.83;;;20.80;39.60;;;;;;5065450;28;46388;-65
2023/05/23 05:56:15;;;;;;;28.00;18.90;;;20.90;39.70;;;;;;5066783;28;46466;-65
2023/05/23 05:58:41;;;;;;;29.93;19.63;;;20.50;39.40;;;;;;5065536;28;46461;-65
2023/05/23 06:01:06;;;;;;;33.50;21.70;;;20.00;40.40;;;;;;5066253;28;46467;-64
2023/05/23 06:03:32;;;;;;;33.90;20.87;;;19.80;41.40;;;;;;5069056;28;46416;-65
2023/05/23 06:05:58;;;;;;;36.07;22.37;;;19.70;41.70;;;;;;5067383;28;46613;-65
2023/05/23 06:08:24;;;;;;;34.47;23.00;;;19.80;41.90;;;;;;5064875;28;47137;-65
2023/05/23 06:10:50;;;;;;;41.23;25.37;;;19.70;41.90;;;;;;5067920;27;46365;-64
2023/05/23 06:13:16;;;;;;;38.00;25.03;;;19.50;42.50;;;;;;5068400;28;46130;-65
2023/05/23 06:15:42;;;;;;;42.40;26.03;;;19.20;43.30;;;;;;5067773;28;46328;-65
2023/05/23 06:18:08;;;;;;;45.13;27.23;;;19.00;44.40;;;;;;5064671;28;46368;-65
2023/05/23 06:20:33;;;;;;;45.00;27.17;;;18.90;44.40;;;;;;5069154;28;46405;-64
2023/05/23 06:23:00;;;;;;;45.17;28.73;;;19.00;44.00;;;;;;5067646;28;46367;-65
2023/05/23 06:25:26;;;;;;;48.40;27.00;;;19.00;44.40;;;;;;5066854;27;46444;-65
2023/05/23 06:27:51;;;;;;;47.37;27.80;;;19.00;44.90;;;;;;5063358;28;46471;-65
2023/05/23 06:30:17;;;;;;;49.53;27.80;;;19.00;44.70;;;;;;5064837;28;46416;-65
2023/05/23 06:32:43;;;;;;;47.33;27.43;;;19.00;46.10;;;;;;5066937;28;46472;-65
2023/05/23 06:35:09;;;;;;;50.07;28.57;;;19.10;45.10;;;;;;5066267;28;46435;-65
2023/05/23 06:37:34;;;;;;;43.80;28.90;;;19.00;45.80;;;;;;5067603;28;46252;-66
2023/05/23 06:40:00;;;;;;;54.97;28.33;;;18.90;46.10;;;;;;5066316;28;46455;-65
2023/05/23 06:42:26;;;;;;;47.80;28.23;;;19.00;46.00;;;;;;5068029;28;46576;-66
2023/05/23 06:44:51;;;;;;;50.50;29.53;;;19.20;45.50;;;;;;5065619;28;46299;-65
2023/05/23 06:47:17;;;;;;;50.80;29.67;;;19.30;44.80;;;;;;5066405;28;46396;-64
2023/05/23 06:49:42;;;;;;;43.63;25.20;;;19.40;44.30;;;;;;5068917;28;46350;-64
2023/05/23 06:52:08;;;;;;;44.53;26.40;;;19.50;43.80;;;;;;5065568;28;46426;-65
2023/05/23 06:54:34;;;;;;;40.40;26.33;;;19.30;43.80;;;;;;5066679;28;46585;-64
2023/05/23 06:56:59;;;;;;;42.63;27.13;;;19.30;43.70;;;;;;5066678;28;46258;-64
2023/05/23 06:59:25;;;;;;;47.63;27.00;;;19.20;44.80;;;;;;5065018;28;46349;-64
2023/05/23 07:01:50;;;;;;;42.77;25.90;;;19.20;43.80;;;;;;5065518;28;46477;-64
2023/05/23 07:04:16;;;;;;;45.70;26.17;;;19.10;43.80;;;;;;5064255;28;46483;-64
2023/05/23 07:06:41;;;;;;;41.50;26.50;;;19.10;44.40;;;;;;5063754;28;47057;-65
2023/05/23 07:09:07;;;;;;;48.40;25.20;;;19.10;44.30;;;;;;5064385;28;46475;-64
2023/05/23 07:11:34;;;;;;;46.03;26.40;;;19.30;43.70;;;;;;5066543;28;46693;-64
2023/05/23 07:13:59;;;;;;;40.90;26.50;;;19.30;43.40;;;;;;5067256;28;46837;-64
2023/05/23 07:16:25;;;;;;;38.03;23.80;;;19.30;43.30;;;;;;5067570;28;47418;-65
2023/05/23 07:18:51;;;;;;;42.03;23.40;;;19.30;42.70;;;;;;5068168;28;45773;-64
2023/05/23 07:21:16;;;;;;;37.33;22.83;;;19.40;42.50;;;;;;5065443;28;46527;-66
2023/05/23 07:23:42;;;;;;;38.10;23.60;;;19.40;42.20;;;;;;5068232;28;46294;-65
2023/05/23 07:26:08;;;;;;;40.67;24.50;;;19.60;41.80;;;;;;5067132;28;46383;-65
2023/05/23 07:28:35;;;;;;;43.07;24.57;;;19.70;41.10;;;;;;5066029;28;46398;-65
2023/05/23 07:31:00;;;;;;;39.83;25.40;;;19.80;40.80;;;;;;5069433;28;46489;-65
2023/05/23 07:33:26;;;;;;;37.30;25.83;;;19.80;41.00;;;;;;5066496;28;46765;-64
2023/05/23 07:35:51;;;;;;;37.90;25.10;;;19.70;41.10;;;;;;5066319;28;47218;-65
2023/05/23 07:38:17;;;;;;;38.63;24.83;;;19.80;41.10;;;;;;5063757;28;46475;-65
2023/05/23 07:40:43;;;;;;;39.93;26.50;;;19.70;41.40;;;;;;5065397;28;46609;-65
2023/05/23 07:43:08;;;;;;;45.83;28.13;;;19.50;41.90;;;;;;5066377;27;46681;-65
2023/05/23 07:45:34;;;;;;;38.47;25.80;;;19.40;41.80;;;;;;5065511;28;46476;-65
2023/05/23 07:47:59;;;;;;;43.07;25.30;;;19.60;42.70;;;;;;5066428;27;46407;-65
2023/05/23 07:50:26;;;;;;;47.40;27.27;;;19.60;41.30;;;;;;5065377;28;46584;-65
2023/05/23 07:52:52;;;;;;;41.83;27.90;;;19.60;41.60;;;;;;5069327;28;46505;-65
2023/05/23 07:55:17;;;;;;;38.20;26.97;;;19.80;41.10;;;;;;5065666;28;46385;-65
2023/05/23 07:57:43;;;;;;;45.50;26.80;;;20.00;40.50;;;;;;5064456;28;46435;-65
2023/05/23 08:00:09;;;;;;;38.03;26.10;;;20.20;39.90;;;;;;5065162;28;46448;-65
2023/05/23 08:02:35;;;;;;;39.70;25.93;;;20.40;39.20;;;;;;5065871;27;46314;-64
2023/05/23 08:05:01;;;;;;;33.60;22.30;;;20.50;38.70;;;;;;5064676;28;46414;-65
2023/05/23 08:07:26;;;;;;;39.53;23.97;;;20.50;38.60;;;;;;5064876;28;46479;-64
2023/05/23 08:09:52;;;;;;;41.30;25.67;;;20.60;38.40;;;;;;5066563;28;46443;-65
2023/05/23 08:12:18;;;;;;;37.70;22.73;;;20.90;37.70;;;;;;5062527;28;46644;-65
2023/05/23 08:14:43;;;;;;;38.37;24.23;;;21.20;36.10;;;;;;5066835;28;46389;-64
2023/05/23 08:17:11;;;;;;;34.20;22.47;;;21.30;35.30;;;;;;5066706;28;46452;-65
2023/05/23 08:19:37;;;;;;;35.70;23.67;;;21.40;35.30;;;;;;5072911;28;45818;-65
2023/05/23 08:22:03;;;;;;;42.40;25.40;;;21.20;35.10;;;;;;5066308;28;46548;-65
2023/05/23 08:24:29;;;;;;;40.27;23.53;;;21.10;35.00;;;;;;5065157;28;46452;-64
2023/05/23 08:26:55;;;;;;;38.67;24.17;;;21.10;35.10;;;;;;5064813;28;46215;-63
2023/05/23 08:29:21;;;;;;;39.40;24.30;;;21.40;36.60;;;;;;5068546;28;45795;-64
2023/05/23 08:31:46;;;;;;;46.30;23.10;;;21.10;35.10;;;;;;5068233;28;46479;-64
2023/05/23 08:34:13;;;;;;;37.37;23.67;;;21.20;35.10;;;;;;5067822;28;47200;-64
2023/05/23 08:36:39;;;;;;;40.53;23.80;;;21.40;34.70;;;;;;5066302;28;46439;-65
2023/05/23 08:39:04;;;;;;;41.93;24.90;;;21.50;34.80;;;;;;5064442;28;46338;-64
2023/05/23 08:41:30;;;;;;;37.37;24.13;;;21.60;34.70;;;;;;5064497;28;46355;-64
2023/05/23 08:43:56;;;;;;;39.10;23.60;;;21.90;33.40;;;;;;5062512;28;47608;-63
2023/05/23 08:46:22;;;;;;;37.20;24.63;;;22.40;32.20;;;;;;5066439;28;46374;-65
2023/05/23 08:48:53;;;;;;;41.70;25.13;;;22.40;31.50;;;;;;5064798;28;46461;-64
2023/05/23 08:51:21;;;;;;;43.00;25.20;;;22.30;31.30;;;;;;5066886;28;45793;-64
2023/05/23 08:53:48;;;;;;;41.83;26.13;;;22.60;30.70;;;;;;5067018;28;46419;-64
2023/05/23 08:56:15;;;;;;;40.73;26.80;;;22.60;30.80;;;;;;5064434;28;46412;-65
2023/05/23 08:58:42;;;;;;;46.90;27.67;;;22.20;31.50;;;;;;5065662;28;46410;-64
2023/05/23 09:01:13;;;;;;;49.13;28.70;;;21.50;32.80;;;;;;5064273;27;46474;-65
2023/05/23 09:03:41;;;;;;;43.30;26.90;;;20.70;34.70;;;;;;5069476;28;46394;-65
2023/05/23 09:06:07;;;;;;;48.20;27.47;;;20.40;35.50;;;;;;5067327;28;46548;-64
2023/05/23 09:08:33;;;;;;;45.10;26.00;;;20.30;35.80;;;;;;5069657;28;45908;-65
2023/05/23 09:11:01;;;;;;;47.37;28.60;;;20.30;36.10;;;;;;5069227;28;46636;-66
2023/05/23 09:13:30;;;;;;;51.60;28.40;;;20.30;36.10;;;;;;5067419;28;47399;-65
2023/05/23 09:16:00;;;;;;;45.83;27.07;;;20.10;36.70;;;;;;5065717;28;46354;-65
2023/05/23 09:18:32;;;;;;;41.70;26.67;;;19.90;37.20;;;;;;5066607;28;46938;-65
2023/05/23 09:20:57;;;;;;;44.30;27.07;;;19.70;37.80;;;;;;5066127;28;46470;-64
2023/05/23 09:23:23;;;;;;;39.20;26.30;;;19.70;37.70;;;;;;5068229;28;46885;-64
2023/05/23 09:25:49;;;;;;;39.50;24.77;;;20.00;37.20;;;;;;5068404;28;45908;-65
2023/05/23 09:28:14;;;;;;;46.77;27.53;;;20.10;36.60;;;;;;5066474;28;46393;-65
2023/05/23 09:30:40;;;;;;;38.70;25.17;;;20.30;36.40;;;;;;5066997;28;46362;-65
2023/05/23 09:33:06;;;;;;;42.17;25.10;;;20.50;36.20;;;;;;5069035;28;46379;-64
2023/05/23 09:35:32;;;;;;;43.67;26.70;;;20.40;36.10;;;;;;5068206;27;46330;-65
2023/05/23 09:37:58;;;;;;;40.50;23.97;;;20.30;36.20;;;;;;5068282;27;46436;-65
2023/05/23 09:40:30;;;;;;;38.07;23.40;;;20.40;36.60;;;;;;5068512;28;46405;-64
2023/05/23 09:43:04;;;;;;;36.43;22.23;;;20.40;36.50;;;;;;5068758;28;46033;-64
2023/05/23 09:45:31;;;;;;;40.57;23.63;;;20.50;35.90;;;;;;5068414;28;46745;-65
2023/05/23 09:47:56;;;;;;;34.60;22.47;;;20.60;35.40;;;;;;5068283;27;46446;-64
2023/05/23 09:50:23;;;;;;;41.03;22.30;;;20.80;34.80;;;;;;5067180;28;46659;-65
2023/05/23 09:52:50;;;;;;;36.33;22.60;;;21.10;34.00;;;;;;5066964;28;47157;-65
2023/05/23 09:55:15;;;;;;;33.67;22.40;;;21.20;33.50;;;;;;5065627;28;46416;-64
2023/05/23 09:57:42;;;;;;;33.23;20.97;;;21.50;32.80;;;;;;5068607;28;46594;-64
2023/05/23 10:00:15;;;;;;;35.93;21.97;;;21.10;33.00;;;;;;5066646;28;46302;-65
2023/05/23 10:02:57;;;;;;;34.40;21.57;;;21.10;33.70;;;;;;5066943;28;47958;-64
2023/05/23 10:05:44;;;;;;;31.20;21.57;;;21.50;32.70;;;;;;5068017;28;46450;-66
2023/05/23 10:08:30;;;;;;;32.10;20.50;;;22.00;31.30;;;;;;5064780;28;46797;-65
2023/05/23 10:10:55;;;;;;;36.33;20.47;;;22.50;29.10;;;;;;5067462;28;46396;-65
2023/05/23 10:13:24;;;;;;;35.47;22.00;;;22.40;29.10;;;;;;5076140;27;46501;-64
2023/05/23 10:15:54;;;;;;;35.30;21.23;;;22.70;28.80;;;;;;5066373;28;46425;-64
2023/05/23 10:18:25;;;;;;;40.83;20.87;;;23.10;28.30;;;;;;5067645;28;46317;-65
2023/05/23 10:20:56;;;;;;;34.00;21.33;;;23.30;27.20;;;;;;5066979;28;46422;-64
2023/05/23 10:23:22;;;;;;;35.23;20.80;;;23.30;26.50;;;;;;5067018;28;46468;-64
2023/05/23 10:25:49;;;;;;;31.30;21.33;;;22.90;26.20;;;;;;5065707;28;46440;-64
2023/05/23 10:28:15;;;;;;;35.63;19.87;;;22.80;27.20;;;;;;5067887;28;46454;-64
2023/05/23 10:30:41;;;;;;;35.40;21.37;;;22.80;27.50;;;;;;5068384;28;46483;-64
2023/05/23 10:33:08;;;;;;;28.20;20.53;;;22.60;27.80;;;;;;5069076;27;46888;-64
2023/05/23 10:35:58;;;;;;;28.70;19.80;;;22.50;28.10;;;;;;5064148;28;46329;-64
2023/05/23 10:38:35;;;;;;;29.60;21.20;;;22.60;28.30;;;;;;5064409;27;46381;-63
2023/05/23 10:41:15;;;;;;;38.10;22.10;;;22.40;28.50;;;;;;5068033;28;46556;-64
2023/05/23 10:43:43;;;;;;;32.33;21.87;;;22.60;28.40;;;;;;5069262;28;46286;-64
2023/05/23 10:46:12;;;;;;;32.23;20.43;;;22.40;27.30;;;;;;5068846;28;46421;-64
2023/05/23 10:48:41;;;;;;;32.10;20.13;;;22.60;27.80;;;;;;5065262;28;46573;-65
2023/05/23 10:51:13;;;;;;;29.83;19.87;;;23.00;27.50;;;;;;5067912;28;46531;-65
2023/05/23 10:53:43;;;;;;;25.67;18.93;;;23.20;26.80;;;;;;5067102;28;46579;-65
2023/05/23 10:56:18;;;;;;;29.93;18.33;;;23.70;26.20;;;;;;5066450;28;46361;-65
2023/05/23 10:58:44;;;;;;;27.70;17.97;;;23.50;24.90;;;;;;5066199;28;46562;-65
2023/05/23 11:01:15;;;;;;;23.00;16.30;;;23.20;24.70;;;;;;5065710;28;46602;-66
2023/05/23 11:03:46;;;;;;;26.33;16.50;;;23.00;24.50;;;;;;5062875;28;46526;-64
2023/05/23 11:06:27;;;;;;;22.47;16.37;;;22.80;24.40;;;;;;5066296;28;46645;-64
2023/05/23 11:09:01;;;;;;;19.67;14.20;;;22.80;24.40;;;;;;5067015;28;46354;-63
2023/05/23 11:11:53;;;;;;;27.13;18.70;;;23.00;24.20;;;;;;5067615;27;46335;-64
2023/05/23 11:14:44;;;;;;;25.63;16.87;;;23.10;23.90;;;;;;5066334;28;47921;-64
2023/05/23 11:17:17;;;;;;;26.37;16.20;;;23.20;23.50;;;;;;5064898;28;46527;-64
2023/05/23 11:20:06;;;;;;;26.50;14.93;;;23.50;22.70;;;;;;5068602;28;46364;-64
2023/05/23 11:22:32;;;;;;;25.37;16.13;;;23.70;21.90;;;;;;5071098;28;45897;-64
2023/05/23 11:24:59;;;;;;;25.63;14.50;;;24.10;20.90;;;;;;5073176;28;45982;-64
2023/05/23 11:27:39;;;;;;;21.17;15.27;;;24.10;20.20;;;;;;5070043;28;45819;-63
2023/05/23 11:30:14;;;;;;;21.57;15.70;;;24.40;20.10;;;;;;5063238;28;46738;-65
2023/05/23 11:32:41;;;;;;;22.10;16.43;;;24.70;19.90;;;;;;5062297;28;46357;-65
2023/05/23 11:35:08;;;;;;;23.20;15.60;;;24.70;19.80;;;;;;5061663;28;46433;-64
2023/05/23 11:37:35;;;;;;;16.43;13.63;;;24.70;19.80;;;;;;5063133;28;46480;-63
2023/05/23 11:40:24;;;;;;;21.03;14.13;;;24.70;18.80;;;;;;5068684;28;46531;-64
2023/05/23 11:42:50;;;;;;;21.30;14.80;;;24.20;18.50;;;;;;5066916;28;45824;-64
2023/05/23 11:45:18;;;;;;;19.27;14.67;;;24.10;19.50;;;;;;5065540;28;46468;-64
2023/05/23 11:47:44;;;;;;;22.60;11.97;;;24.10;19.50;;;;;;5071026;28;46381;-64
2023/05/23 11:50:10;;;;;;;21.70;14.63;;;24.20;18.90;;;;;;5066349;28;46430;-63
2023/05/23 11:52:35;;;;;;;18.43;13.50;;;23.90;19.30;;;;;;5066453;28;46598;-65
2023/05/23 11:55:01;;;;;;;21.63;14.47;;;24.00;20.10;;;;;;5062264;28;46495;-65
2023/05/23 11:57:27;;;;;;;22.30;14.20;;;24.20;19.60;;;;;;5064630;27;46429;-64
2023/05/23 11:59:53;;;;;;;23.70;13.47;;;24.50;18.90;;;;;;5066077;28;46006;-64
2023/05/23 12:02:21;;;;;;;19.80;13.30;;;24.40;17.40;;;;;;5065404;28;46475;-64
2023/05/23 12:04:48;;;;;;;22.00;12.90;;;24.80;17.50;;;;;;5062581;27;46413;-64
2023/05/23 12:07:17;;;;;;;23.00;13.60;;;25.20;17.10;;;;;;5063116;28;46374;-64
2023/05/23 12:09:43;;;;;;;21.10;13.60;;;25.50;16.90;;;;;;5064643;28;46377;-64
2023/05/23 12:12:11;;;;;;;17.40;13.13;;;25.40;16.50;;;;;;5066996;28;46554;-63
2023/05/23 12:14:43;;;;;;;26.23;13.23;;;25.20;17.00;;;;;;5064890;28;46789;-65
2023/05/23 12:17:12;;;;;;;19.07;12.37;;;25.10;16.70;;;;;;5066696;28;46476;-65
2023/05/23 12:19:38;;;;;;;25.83;13.40;;;24.80;16.90;;;;;;5067667;28;46373;-65
2023/05/23 12:22:07;;;;;;;18.37;12.37;;;24.60;17.30;;;;;;5064508;28;46400;-64
2023/05/23 12:24:33;;;;;;;17.37;12.70;;;24.00;18.10;;;;;;5064403;28;46437;-66
2023/05/23 12:27:00;;;;;;;24.37;12.63;;;24.00;18.70;;;;;;5065189;28;45956;-64
2023/05/23 12:29:34;;;;;;;19.17;12.33;;;23.90;18.40;;;;;;5065905;28;46420;-65